createdAt,value
2022-09-17T00:01:23.125Z,101165.50
2022-09-17T00:03:56.474Z,101166.63
2022-09-17T00:06:25.133Z,101168.47
2022-09-17T00:08:52.436Z,101169.59
2022-09-17T00:11:30.679Z,101160.63
2022-09-17T00:13:59.903Z,101178.69
2022-09-17T00:16:39.059Z,101178.84
2022-09-17T00:19:10.107Z,101183.25
2022-09-17T00:21:36.789Z,101183.25
2022-09-17T00:24:06.240Z,101187.69
2022-09-17T00:26:33.896Z,101195.94
2022-09-17T00:29:01.514Z,101192.50
2022-09-17T00:31:29.531Z,101188.94
2022-09-17T00:33:56.829Z,101201.34
2022-09-17T00:36:23.775Z,101201.34
2022-09-17T00:38:55.421Z,101201.34
2022-09-17T00:41:24.094Z,101203.06
2022-09-17T00:43:57.942Z,101203.91
2022-09-17T00:46:33.690Z,101208.34
2022-09-17T00:49:04.246Z,101205.63
2022-09-17T00:51:37.491Z,101209.19
2022-09-17T00:54:10.466Z,101217.31
2022-09-17T00:56:39.581Z,101219.03
2022-09-17T00:59:06.256Z,101211.03
2022-09-17T01:01:33.204Z,101208.34
2022-09-17T01:04:00.732Z,101207.47
2022-09-17T01:07:02.846Z,101211.91
2022-09-17T01:09:41.175Z,101210.91
2022-09-17T01:12:29.498Z,101209.78
2022-09-17T01:15:26.009Z,101216.47
2022-09-17T01:18:06.759Z,101213.28
2022-09-17T01:20:42.443Z,101213.53
2022-09-17T01:23:41.575Z,101217.38
2022-09-17T01:26:29.709Z,101216.63
2022-09-17T01:29:12.531Z,101213.94
2022-09-17T01:31:54.287Z,101214.06
2022-09-17T01:35:01.703Z,101226.88
2022-09-17T01:37:41.768Z,101234.84
2022-09-17T01:40:15.520Z,101230.44
2022-09-17T01:42:52.725Z,101234.84
2022-09-17T01:45:30.762Z,101234.13
2022-09-17T01:48:05.133Z,101242.38
2022-09-17T01:50:42.568Z,101247.91
2022-09-17T01:53:10.673Z,101246.06
2022-09-17T01:55:40.521Z,101246.91
2022-09-17T01:58:45.998Z,101241.75
2022-09-17T02:01:17.344Z,101243.47
2022-09-17T02:03:56.803Z,101233.53
2022-09-17T02:06:29.932Z,101237.22
2022-09-17T02:09:21.649Z,101231.06
2022-09-17T02:11:55.607Z,101241.03
2022-09-17T02:14:28.767Z,101243.00
2022-09-17T02:17:06.829Z,101244.00
2022-09-17T02:19:38.527Z,101246.69
2022-09-17T02:22:30.385Z,101246.09
2022-09-17T02:25:06.582Z,101250.66
2022-09-17T02:27:47.971Z,101255.06
2022-09-17T02:30:15.185Z,101252.25
2022-09-17T02:32:42.574Z,101260.09
2022-09-17T02:35:10.970Z,101258.38
2022-09-17T02:37:37.590Z,101259.25
2022-09-17T02:40:05.276Z,101255.53
2022-09-17T02:42:51.990Z,101259.13
2022-09-17T02:45:27.685Z,101268.81
2022-09-17T02:48:32.502Z,101263.53
2022-09-17T02:51:14.046Z,101262.69
2022-09-17T02:53:56.735Z,101260.69
2022-09-17T02:56:55.532Z,101262.41
2022-09-17T02:59:28.821Z,101259.59
2022-09-17T03:02:03.261Z,101257.88
2022-09-17T03:04:31.809Z,101260.69
2022-09-17T03:06:59.530Z,101264.41
2022-09-17T03:09:26.515Z,101268.09
2022-09-17T03:11:52.995Z,101263.78
2022-09-17T03:14:20.786Z,101264.03
2022-09-17T03:16:48.052Z,101263.31
2022-09-17T03:19:14.520Z,101264.31
2022-09-17T03:21:40.990Z,101261.47
2022-09-17T03:24:11.688Z,101255.19
2022-09-17T03:26:39.357Z,101255.31
2022-09-17T03:29:05.986Z,101256.31
2022-09-17T03:31:32.646Z,101252.75
2022-09-17T03:34:00.667Z,101256.31
2022-09-17T03:36:27.297Z,101254.34
2022-09-17T03:38:55.830Z,101255.19
2022-09-17T03:41:22.823Z,101251.63
2022-09-17T03:43:51.283Z,101251.63
2022-09-17T03:46:18.533Z,101255.19
2022-09-17T03:48:45.253Z,101256.19
2022-09-17T03:51:12.237Z,101252.63
2022-09-17T03:53:39.545Z,101260.59
2022-09-17T03:56:06.951Z,101260.59
2022-09-17T03:58:33.961Z,101260.34
2022-09-17T04:01:00.633Z,101261.22
2022-09-17T04:03:32.129Z,101257.25
2022-09-17T04:05:58.734Z,101258.13
2022-09-17T04:08:25.287Z,101266.97
2022-09-17T04:10:51.934Z,101264.88
2022-09-17T04:13:18.835Z,101264.88
2022-09-17T04:15:45.995Z,101267.44
2022-09-17T04:18:13.758Z,101266.59
2022-09-17T04:20:40.367Z,101264.88
2022-09-17T04:23:07.339Z,101270.28
2022-09-17T04:25:34.054Z,101272.97
2022-09-17T04:28:00.572Z,101272.97
2022-09-17T04:30:27.081Z,101275.69
2022-09-17T04:32:53.836Z,101275.56
2022-09-17T04:35:21.566Z,101281.81
2022-09-17T04:37:55.342Z,101278.25
2022-09-17T04:40:23.174Z,101281.09
2022-09-17T04:42:53.734Z,101284.78
2022-09-17T04:45:20.650Z,101279.63
2022-09-17T04:47:47.112Z,101296.00
2022-09-17T04:50:13.565Z,101289.00
2022-09-17T04:52:44.163Z,101290.09
2022-09-17T04:55:12.536Z,101284.09
2022-09-17T04:57:39.281Z,101283.59
2022-09-17T05:00:09.970Z,101288.41
2022-09-17T05:02:36.405Z,101283.34
2022-09-17T05:05:03.771Z,101289.00
2022-09-17T05:07:30.234Z,101284.84
2022-09-17T05:09:56.702Z,101285.94
2022-09-17T05:12:23.231Z,101284.34
2022-09-17T05:14:50.545Z,101291.47
2022-09-17T05:17:17.206Z,101287.31
2022-09-17T05:19:43.672Z,101301.81
2022-09-17T05:22:10.208Z,101299.09
2022-09-17T05:24:39.680Z,101298.97
2022-09-17T05:27:07.182Z,101298.13
2022-09-17T05:29:33.709Z,101307.22
2022-09-17T05:32:00.430Z,101311.03
2022-09-17T05:34:26.950Z,101313.84
2022-09-17T05:36:53.519Z,101306.72
2022-09-17T05:39:22.583Z,101308.44
2022-09-17T05:41:49.123Z,101305.75
2022-09-17T05:44:18.201Z,101306.59
2022-09-17T05:46:46.029Z,101311.03
2022-09-17T05:49:14.222Z,101314.59
2022-09-17T05:51:41.761Z,101315.44
2022-09-17T05:54:12.524Z,101321.84
2022-09-17T05:56:38.944Z,101329.09
2022-09-17T05:59:05.491Z,101329.09
2022-09-17T06:01:32.126Z,101332.78
2022-09-17T06:04:03.066Z,101335.34
2022-09-17T06:06:30.852Z,101338.06
2022-09-17T06:09:00.724Z,101337.09
2022-09-17T06:11:27.207Z,101338.69
2022-09-17T06:13:58.240Z,101343.97
2022-09-17T06:16:25.030Z,101346.28
2022-09-17T06:18:53.010Z,101349.59
2022-09-17T06:21:21.718Z,101348.38
2022-09-17T06:23:52.743Z,101350.75
2022-09-17T06:26:19.269Z,101349.63
2022-09-17T06:28:45.743Z,101355.53
2022-09-17T06:31:13.479Z,101355.28
2022-09-17T06:33:41.483Z,101355.03
2022-09-17T06:36:14.144Z,101351.94
2022-09-17T06:38:41.956Z,101355.88
2022-09-17T06:41:09.015Z,101354.38
2022-09-17T06:43:36.523Z,101349.31
2022-09-17T06:46:09.226Z,101347.94
2022-09-17T06:48:37.613Z,101345.72
2022-09-17T06:51:06.476Z,101344.22
2022-09-17T06:53:38.576Z,101349.09
2022-09-17T06:56:07.093Z,101352.19
2022-09-17T06:58:37.162Z,101344.44
2022-09-17T07:01:04.815Z,101350.06
2022-09-17T07:03:43.339Z,101352.13
2022-09-17T07:06:10.701Z,101350.47
2022-09-17T07:08:38.073Z,101350.69
2022-09-17T07:11:04.908Z,101358.16
2022-09-17T07:13:34.593Z,101357.38
2022-09-17T07:16:02.959Z,101356.44
2022-09-17T07:18:30.184Z,101355.25
2022-09-17T07:20:59.395Z,101355.75
2022-09-17T07:23:35.772Z,101354.44
2022-09-17T07:26:08.802Z,101354.50
2022-09-17T07:28:35.328Z,101357.56
2022-09-17T07:31:05.646Z,101356.50
2022-09-17T07:33:37.565Z,101360.81
2022-09-17T07:36:07.398Z,101357.97
2022-09-17T07:38:35.098Z,101355.41
2022-09-17T07:41:04.666Z,101361.56
2022-09-17T07:43:35.652Z,101355.16
2022-09-17T07:46:04.409Z,101354.88
2022-09-17T07:48:31.278Z,101355.75
2022-09-17T07:50:58.165Z,101344.31
2022-09-17T07:53:31.577Z,101342.88
2022-09-17T07:56:00.620Z,101347.88
2022-09-17T07:58:32.161Z,101345.72
2022-09-17T08:01:08.622Z,101349.00
2022-09-17T08:03:39.974Z,101348.56
2022-09-17T08:06:15.243Z,101354.28
2022-09-17T08:08:42.235Z,101356.97
2022-09-17T08:11:10.157Z,101360.81
2022-09-17T08:13:40.853Z,101355.78
2022-09-17T08:16:10.022Z,101367.38
2022-09-17T08:18:36.743Z,101368.09
2022-09-17T08:21:06.123Z,101367.38
2022-09-17T08:23:36.399Z,101371.66
2022-09-17T08:26:04.038Z,101369.50
2022-09-17T08:28:31.574Z,101363.53
2022-09-17T08:31:03.006Z,101360.06
2022-09-17T08:33:35.074Z,101368.19
2022-09-17T08:36:01.872Z,101375.19
2022-09-17T08:38:32.549Z,101375.34
2022-09-17T08:41:22.501Z,101373.94
2022-09-17T08:44:13.878Z,101374.50
2022-09-17T08:46:50.804Z,101370.16
2022-09-17T08:49:39.891Z,101372.13
2022-09-17T08:52:06.314Z,101370.38
2022-09-17T08:54:57.033Z,101373.19
2022-09-17T08:57:50.283Z,101374.44
2022-09-17T09:00:21.649Z,101369.56
2022-09-17T09:03:11.514Z,101364.03
2022-09-17T09:05:50.213Z,101369.47
2022-09-17T09:08:28.805Z,101372.13
2022-09-17T09:11:02.086Z,101368.13
2022-09-17T09:13:39.153Z,101374.41
2022-09-17T09:16:15.561Z,101363.75
2022-09-17T09:18:42.342Z,101370.84
2022-09-17T09:21:27.758Z,101369.03
2022-09-17T09:24:05.272Z,101374.88
2022-09-17T09:26:45.247Z,101368.56
2022-09-17T09:29:30.003Z,101375.03
2022-09-17T09:32:21.616Z,101372.78
2022-09-17T09:34:54.895Z,101363.91
2022-09-17T09:37:33.642Z,101351.59
2022-09-17T09:40:13.866Z,101357.06
2022-09-17T09:42:40.406Z,101353.31
2022-09-17T09:45:17.806Z,101355.03
2022-09-17T09:48:06.202Z,101370.53
2022-09-17T09:51:05.696Z,101374.56
2022-09-17T09:54:12.384Z,101381.72
2022-09-17T09:56:55.010Z,101393.44
2022-09-17T09:59:21.505Z,101403.03
2022-09-17T10:01:48.193Z,101408.00
2022-09-17T10:04:23.198Z,101400.16
2022-09-17T10:06:52.965Z,101396.59
2022-09-17T10:09:22.241Z,101400.06
2022-09-17T10:12:13.530Z,101390.91
2022-09-17T10:14:46.151Z,101389.00
2022-09-17T10:17:26.171Z,101385.13
2022-09-17T10:20:01.801Z,101392.56
2022-09-17T10:22:36.882Z,101377.31
2022-09-17T10:25:20.131Z,101375.81
2022-09-17T10:27:48.311Z,101377.56
2022-09-17T10:30:17.583Z,101378.66
2022-09-17T10:32:44.571Z,101372.97
2022-09-17T10:35:18.274Z,101370.06
2022-09-17T10:37:49.938Z,101370.53
2022-09-17T10:40:19.521Z,101358.22
2022-09-17T10:42:51.124Z,101372.16
2022-09-17T10:45:29.842Z,101360.69
2022-09-17T10:47:59.054Z,101352.78
2022-09-17T10:50:34.476Z,101358.56
2022-09-17T10:53:05.960Z,101359.66
2022-09-17T10:55:39.922Z,101353.75
2022-09-17T10:58:07.177Z,101348.53
2022-09-17T11:00:44.068Z,101348.25
2022-09-17T11:03:53.071Z,101344.03
2022-09-17T11:06:57.246Z,101337.41
2022-09-17T11:09:23.682Z,101341.53
2022-09-17T11:11:50.284Z,101347.16
2022-09-17T11:14:31.199Z,101343.03
2022-09-17T11:17:16.034Z,101331.94
2022-09-17T11:20:01.786Z,101332.47
2022-09-17T11:22:46.585Z,101329.25
2022-09-17T11:25:59.728Z,101330.13
2022-09-17T11:28:57.609Z,101338.81
2022-09-17T11:31:52.115Z,101352.06
2022-09-17T11:34:42.698Z,101350.69
2022-09-17T11:37:09.102Z,101349.22
2022-09-17T11:39:49.293Z,101351.31
2022-09-17T11:42:23.879Z,101350.66
2022-09-17T11:45:19.762Z,101341.13
2022-09-17T11:47:56.388Z,101346.16
2022-09-17T11:50:29.778Z,101333.97
2022-09-17T11:53:15.189Z,101335.81
2022-09-17T11:55:53.639Z,101330.97
2022-09-17T11:58:42.553Z,101328.50
2022-09-17T12:01:34.262Z,101323.66
2022-09-17T12:04:27.177Z,101319.13
2022-09-17T12:07:31.326Z,101307.88
2022-09-17T12:10:19.234Z,101313.91
2022-09-17T12:13:07.358Z,101308.28
2022-09-17T12:15:38.506Z,101307.97
2022-09-17T12:18:32.385Z,101304.06
2022-09-17T12:21:02.675Z,101301.81
2022-09-17T12:23:41.829Z,101300.28
2022-09-17T12:26:22.688Z,101302.66
2022-09-17T12:29:03.479Z,101303.75
2022-09-17T12:31:46.086Z,101302.88
2022-09-17T12:34:34.745Z,101315.47
2022-09-17T12:37:08.180Z,101308.81
2022-09-17T12:40:05.611Z,101295.81
2022-09-17T12:42:54.494Z,101305.72
2022-09-17T12:46:07.166Z,101293.69
2022-09-17T12:48:45.506Z,101290.44
2022-09-17T12:51:12.147Z,101289.38
2022-09-17T12:53:52.938Z,101284.25
2022-09-17T12:57:00.461Z,101280.50
2022-09-17T12:59:32.535Z,101280.16
2022-09-17T13:02:18.709Z,101273.34
2022-09-17T13:05:01.099Z,101277.47
2022-09-17T13:07:37.149Z,101273.56
2022-09-17T13:10:09.716Z,101277.84
2022-09-17T13:12:49.061Z,101283.28
2022-09-17T13:15:17.392Z,101282.59
2022-09-17T13:18:12.458Z,101288.38
2022-09-17T13:20:44.231Z,101293.81
2022-09-17T13:23:12.704Z,101295.47
2022-09-17T13:25:55.068Z,101290.28
2022-09-17T13:28:21.623Z,101289.72
2022-09-17T13:31:06.191Z,101297.34
2022-09-17T13:33:57.025Z,101298.47
2022-09-17T13:36:43.168Z,101294.72
2022-09-17T13:39:44.241Z,101284.88
2022-09-17T13:42:14.392Z,101287.66
2022-09-17T13:45:02.072Z,101286.50
2022-09-17T13:47:31.278Z,101279.44
2022-09-17T13:50:05.801Z,101292.41
2022-09-17T13:52:36.032Z,101298.41
2022-09-17T13:55:03.561Z,101300.28
2022-09-17T13:57:33.465Z,101306.06
2022-09-17T14:00:01.351Z,101309.31
2022-09-17T14:02:31.791Z,101293.81
2022-09-17T14:05:25.862Z,101303.06
2022-09-17T14:08:05.807Z,101300.56
2022-09-17T14:10:42.086Z,101305.03
2022-09-17T14:13:46.048Z,101300.97
2022-09-17T14:16:46.341Z,101308.00
2022-09-17T14:19:15.533Z,101319.97
2022-09-17T14:21:57.180Z,101320.16
2022-09-17T14:24:30.127Z,101314.00
2022-09-17T14:27:15.362Z,101312.13
2022-09-17T14:29:58.164Z,101316.22
2022-09-17T14:32:30.026Z,101314.63
2022-09-17T14:35:03.890Z,101317.84
2022-09-17T14:37:30.578Z,101319.72
2022-09-17T14:39:57.054Z,101320.00
2022-09-17T14:42:35.635Z,101332.94
2022-09-17T14:45:13.993Z,101325.91
2022-09-17T14:47:40.503Z,101317.16
2022-09-17T14:50:21.025Z,101325.78
2022-09-17T14:52:49.809Z,101322.31
2022-09-17T14:55:31.061Z,101319.53
2022-09-17T14:58:04.833Z,101317.78
2022-09-17T15:00:35.144Z,101319.44
2022-09-17T15:03:01.868Z,101324.34
2022-09-17T15:05:38.983Z,101325.50
2022-09-17T15:08:11.427Z,101319.69
2022-09-17T15:10:46.981Z,101329.19
2022-09-17T15:13:20.894Z,101324.72
2022-09-17T15:16:14.355Z,101333.13
2022-09-17T15:18:47.167Z,101323.16
2022-09-17T15:21:40.112Z,101321.38
2022-09-17T15:24:34.996Z,101319.59
2022-09-17T15:27:12.541Z,101321.78
2022-09-17T15:29:43.810Z,101321.94
2022-09-17T15:32:12.966Z,101323.28
2022-09-17T15:34:40.887Z,101331.59
2022-09-17T15:37:16.403Z,101327.47
2022-09-17T15:39:50.690Z,101334.94
2022-09-17T15:42:29.977Z,101329.50
2022-09-17T15:45:22.023Z,101336.81
2022-09-17T15:47:53.110Z,101329.50
2022-09-17T15:50:24.317Z,101336.97
2022-09-17T15:52:59.201Z,101336.13
2022-09-17T15:55:36.714Z,101339.16
2022-09-17T15:58:21.553Z,101340.00
2022-09-17T16:00:52.384Z,101332.84
2022-09-17T16:03:44.611Z,101335.16
2022-09-17T16:06:20.690Z,101330.00
2022-09-17T16:08:57.704Z,101339.34
2022-09-17T16:11:29.373Z,101333.50
2022-09-17T16:13:58.416Z,101339.81
2022-09-17T16:16:38.101Z,101339.97
2022-09-17T16:19:06.686Z,101340.13
2022-09-17T16:21:33.305Z,101327.66
2022-09-17T16:24:00.132Z,101333.22
2022-09-17T16:26:31.747Z,101334.25
2022-09-17T16:29:16.209Z,101335.09
2022-09-17T16:31:44.611Z,101341.28
2022-09-17T16:34:12.162Z,101346.72
2022-09-17T16:36:39.302Z,101339.69
2022-09-17T16:39:05.789Z,101353.31
2022-09-17T16:41:32.283Z,101349.56
2022-09-17T16:44:03.193Z,101356.88
2022-09-17T16:46:29.702Z,101355.88
2022-09-17T16:48:57.252Z,101360.47
2022-09-17T16:51:23.693Z,101355.03
2022-09-17T16:53:53.828Z,101355.19
2022-09-17T16:56:20.334Z,101349.03
2022-09-17T16:58:46.769Z,101360.22
2022-09-17T17:01:15.515Z,101365.13
2022-09-17T17:03:48.916Z,101357.09
2022-09-17T17:06:17.406Z,101375.31
2022-09-17T17:08:44.003Z,101362.84
2022-09-17T17:11:10.507Z,101371.47
2022-09-17T17:13:38.181Z,101367.50
2022-09-17T17:16:09.207Z,101372.53
2022-09-17T17:18:35.939Z,101370.56
2022-09-17T17:21:11.526Z,101368.28
2022-09-17T17:23:47.795Z,101370.31
2022-09-17T17:26:17.419Z,101378.63
2022-09-17T17:28:44.093Z,101376.34
2022-09-17T17:31:11.562Z,101381.25
2022-09-17T17:33:42.450Z,101385.25
2022-09-17T17:36:10.534Z,101396.03
2022-09-17T17:38:37.324Z,101407.47
2022-09-17T17:41:09.578Z,101399.16
2022-09-17T17:43:41.165Z,101407.50
2022-09-17T17:46:10.185Z,101404.94
2022-09-17T17:48:37.471Z,101425.97
2022-09-17T17:51:06.491Z,101423.25
2022-09-17T17:53:36.804Z,101426.97
2022-09-17T17:56:06.696Z,101424.13
2022-09-17T17:58:34.108Z,101426.09
2022-09-17T18:01:08.671Z,101423.06
2022-09-17T18:03:39.207Z,101426.31
2022-09-17T18:06:06.804Z,101417.03
2022-09-17T18:08:36.578Z,101417.84
2022-09-17T18:11:04.154Z,101410.28
2022-09-17T18:13:32.042Z,101407.13
2022-09-17T18:16:01.107Z,101411.09
2022-09-17T18:18:37.287Z,101418.09
2022-09-17T18:21:08.933Z,101420.34
2022-09-17T18:23:39.154Z,101420.63
2022-09-17T18:26:07.568Z,101426.47
2022-09-17T18:28:35.534Z,101439.47
2022-09-17T18:31:06.978Z,101437.97
2022-09-17T18:33:38.077Z,101442.09
2022-09-17T18:36:05.751Z,101447.94
2022-09-17T18:38:33.109Z,101441.91
2022-09-17T18:41:04.753Z,101444.19
2022-09-17T18:43:36.176Z,101458.00
2022-09-17T18:46:04.036Z,101458.56
2022-09-17T18:48:35.725Z,101463.97
2022-09-17T18:51:11.082Z,101468.53
2022-09-17T18:53:41.952Z,101472.13
2022-09-17T18:56:16.179Z,101472.13
2022-09-17T18:58:45.379Z,101462.38
2022-09-17T19:01:11.964Z,101462.53
2022-09-17T19:03:43.221Z,101462.06
2022-09-17T19:06:11.565Z,101462.06
2022-09-17T19:08:38.833Z,101455.91
2022-09-17T19:11:05.510Z,101458.88
2022-09-17T19:13:41.876Z,101469.13
2022-09-17T19:16:10.292Z,101464.81
2022-09-17T19:18:37.437Z,101461.38
2022-09-17T19:21:08.909Z,101469.50
2022-09-17T19:23:43.138Z,101470.38
2022-09-17T19:26:11.775Z,101465.81
2022-09-17T19:28:38.357Z,101468.38
2022-09-17T19:31:10.613Z,101470.13
2022-09-17T19:33:40.478Z,101472.56
2022-09-17T19:36:10.762Z,101465.41
2022-09-17T19:38:37.854Z,101464.69
2022-09-17T19:41:06.973Z,101467.25
2022-09-17T19:43:38.637Z,101465.56
2022-09-17T19:46:07.886Z,101462.25
2022-09-17T19:48:37.947Z,101469.66
2022-09-17T19:51:05.440Z,101478.66
2022-09-17T19:53:35.796Z,101478.91
2022-09-17T19:56:02.534Z,101476.19
2022-09-17T19:58:29.026Z,101472.75
2022-09-17T20:00:57.004Z,101476.47
2022-09-17T20:03:23.946Z,101475.72
2022-09-17T20:05:59.578Z,101474.88
2022-09-17T20:08:26.608Z,101472.88
2022-09-17T20:10:54.431Z,101485.44
2022-09-17T20:13:22.369Z,101483.34
2022-09-17T20:15:49.114Z,101482.09
2022-09-17T20:18:18.626Z,101485.38
2022-09-17T20:20:47.740Z,101480.97
2022-09-17T20:23:14.228Z,101482.81
2022-09-17T20:25:40.970Z,101485.78
2022-09-17T20:28:07.731Z,101488.22
2022-09-17T20:30:34.227Z,101486.25
2022-09-17T20:33:00.670Z,101480.69
2022-09-17T20:35:27.867Z,101496.09
2022-09-17T20:40:41.135Z,101492.94
2022-09-17T20:43:07.582Z,101494.78
2022-09-17T20:45:34.837Z,101487.63
2022-09-17T20:48:01.453Z,101494.78
2022-09-17T20:50:27.902Z,101480.38
2022-09-17T20:52:54.391Z,101480.38
2022-09-17T20:55:21.472Z,101472.22
2022-09-17T20:57:48.282Z,101468.66
2022-09-17T21:00:20.449Z,101476.78
2022-09-17T21:02:51.727Z,101477.78
2022-09-17T21:05:19.712Z,101471.38
2022-09-17T21:07:46.222Z,101477.78
2022-09-17T21:10:13.419Z,101480.63
2022-09-17T21:12:39.880Z,101478.91
2022-09-17T21:15:10.969Z,101478.03
2022-09-17T21:17:40.634Z,101478.03
2022-09-17T21:20:07.634Z,101473.63
2022-09-17T21:22:34.080Z,101477.59
2022-09-17T21:25:01.375Z,101476.84
2022-09-17T21:27:31.237Z,101479.56
2022-09-17T21:29:57.935Z,101473.41
2022-09-17T21:32:24.856Z,101483.53
2022-09-17T21:34:52.770Z,101489.09
2022-09-17T21:37:19.201Z,101476.53
2022-09-17T21:39:45.646Z,101486.50
2022-09-17T21:42:12.094Z,101480.94
2022-09-17T21:44:40.025Z,101493.38
2022-09-17T21:47:11.676Z,101488.94
2022-09-17T21:49:40.034Z,101490.81
2022-09-17T21:52:06.472Z,101484.66
2022-09-17T21:54:37.409Z,101494.63
2022-09-17T21:57:04.086Z,101503.63
2022-09-17T21:59:30.584Z,101500.91
2022-09-17T22:01:57.457Z,101487.38
2022-09-17T22:04:25.697Z,101492.66
2022-09-17T22:06:53.194Z,101487.97
2022-09-17T22:09:25.113Z,101494.38
2022-09-17T22:11:53.164Z,101490.94
2022-09-17T22:14:22.478Z,101495.63
2022-09-17T22:16:52.780Z,101496.50
2022-09-17T22:19:20.651Z,101501.91
2022-09-17T22:21:51.102Z,101491.06
2022-09-17T22:24:20.929Z,101489.44
2022-09-17T22:26:55.955Z,101491.16
2022-09-17T22:29:24.089Z,101483.88
2022-09-17T22:31:50.844Z,101489.44
2022-09-17T22:34:21.849Z,101491.41
2022-09-17T22:36:49.265Z,101493.28
2022-09-17T22:39:16.228Z,101500.53
2022-09-17T22:41:45.740Z,101492.41
2022-09-17T22:44:37.767Z,101492.69
2022-09-17T22:47:04.331Z,101484.28
2022-09-17T22:49:30.784Z,101487.25
2022-09-17T22:51:57.249Z,101485.53
2022-09-17T22:54:26.814Z,101480.13
2022-09-17T22:56:53.282Z,101482.81
2022-09-17T22:59:21.075Z,101467.41
2022-09-17T23:01:47.825Z,101467.56
2022-09-17T23:04:14.362Z,101465.69
2022-09-17T23:06:42.143Z,101463.00
2022-09-17T23:09:09.218Z,101467.56
2022-09-17T23:11:38.016Z,101467.56
2022-09-17T23:14:12.646Z,101463.00
2022-09-17T23:16:45.432Z,101458.44
2022-09-17T23:19:12.997Z,101456.72
2022-09-17T23:21:40.020Z,101455.97
2022-09-17T23:24:17.593Z,101453.28
2022-09-17T23:26:44.418Z,101453.28
2022-09-17T23:29:10.858Z,101455.00
2022-09-17T23:31:37.405Z,101451.56
2022-09-17T23:34:06.291Z,101456.97
2022-09-17T23:36:36.328Z,101459.81
2022-09-17T23:39:04.795Z,101455.25
2022-09-17T23:41:33.749Z,101454.41
2022-09-17T23:44:05.317Z,101459.09
2022-09-17T23:46:34.855Z,101466.34
2022-09-17T23:49:03.792Z,101464.50
2022-09-17T23:51:31.551Z,101469.91
2022-09-17T23:54:00.106Z,101466.22
2022-09-17T23:56:28.112Z,101467.81
2022-09-17T23:58:56.423Z,101462.13
